Time;durP1;ratioP1;P1;durP2;ratioP2;P2;SDS_P1;SDS_P2;PMS_P1;PMS_P2;Temp;Humidity;BMP_temperature;BMP_pressure;BME280_temperature;BME280_humidity;BME280_pressure;Samples;Min_cycle;Max_cycle;Signal;HPM_P1;HPM_P2
2023/05/31 00:01:11;;;;;;;6.10;4.93;;;17.40;73.70;;;;;;6303360;28;20348;-66
2023/05/31 00:04:15;;;;;;;6.20;4.57;;;17.30;73.90;;;;;;6303988;28;20444;-66
2023/05/31 00:07:19;;;;;;;8.10;5.63;;;17.30;74.20;;;;;;6303706;28;20433;-65
2023/05/31 00:10:22;;;;;;;4.80;4.40;;;17.20;74.40;;;;;;6303057;28;20461;-64
2023/05/31 00:13:27;;;;;;;4.90;4.50;;;17.10;74.70;;;;;;6303579;28;20471;-65
2023/05/31 00:16:30;;;;;;;6.93;4.60;;;17.10;74.90;;;;;;6303994;28;20461;-65
2023/05/31 00:19:54;;;;;;;6.30;5.07;;;17.00;75.20;;;;;;6303376;28;20480;-65
2023/05/31 00:22:58;;;;;;;9.03;4.53;;;17.00;75.50;;;;;;6303536;28;20464;-66
2023/05/31 00:26:01;;;;;;;4.50;4.03;;;16.90;75.40;;;;;;6317698;28;20487;-66
2023/05/31 00:29:04;;;;;;;6.13;5.17;;;16.90;75.50;;;;;;6311739;28;20529;-65
2023/05/31 00:32:08;;;;;;;4.43;4.10;;;16.90;76.00;;;;;;6303798;28;20491;-66
2023/05/31 00:35:15;;;;;;;4.57;4.07;;;16.90;76.10;;;;;;6303506;28;20473;-65
2023/05/31 00:38:18;;;;;;;5.40;4.60;;;16.90;76.50;;;;;;6303997;28;20475;-65
2023/05/31 00:41:23;;;;;;;6.07;4.50;;;16.80;76.40;;;;;;6303000;28;20520;-65
2023/05/31 00:44:26;;;;;;;5.60;4.73;;;16.80;76.60;;;;;;6298591;28;20484;-65
2023/05/31 00:47:29;;;;;;;7.50;5.63;;;16.70;77.30;;;;;;6303487;28;20554;-65
2023/05/31 00:50:35;;;;;;;6.20;5.60;;;16.60;77.30;;;;;;6303262;28;20469;-65
2023/05/31 00:53:38;;;;;;;9.03;5.17;;;16.60;77.30;;;;;;6303416;28;20584;-65
2023/05/31 00:56:42;;;;;;;5.40;4.60;;;16.60;77.60;;;;;;6302423;28;20818;-65
2023/05/31 00:59:45;;;;;;;6.33;4.50;;;16.50;77.90;;;;;;6303339;28;20476;-66
2023/05/31 01:02:51;;;;;;;5.30;4.80;;;16.50;78.10;;;;;;6302130;28;20473;-65
2023/05/31 01:05:56;;;;;;;4.73;4.43;;;16.50;78.10;;;;;;6303219;28;20473;-65
2023/05/31 01:09:03;;;;;;;5.73;4.97;;;16.40;78.40;;;;;;6302982;28;20479;-65
2023/05/31 01:12:17;;;;;;;6.07;4.80;;;16.30;78.90;;;;;;6301748;28;20477;-66
2023/05/31 01:15:23;;;;;;;4.70;4.30;;;16.30;79.30;;;;;;6302446;28;20479;-66
2023/05/31 01:18:32;;;;;;;6.07;5.40;;;16.20;79.70;;;;;;6302934;28;20479;-66
2023/05/31 01:21:51;;;;;;;5.10;4.53;;;16.20;80.30;;;;;;6302418;28;20469;-66
2023/05/31 01:25:10;;;;;;;6.93;5.50;;;16.20;80.50;;;;;;6302619;28;20506;-66
2023/05/31 01:28:17;;;;;;;5.97;4.87;;;16.20;80.70;;;;;;6302427;28;20460;-66
2023/05/31 01:31:22;;;;;;;6.20;4.67;;;16.10;81.00;;;;;;6302411;28;20484;-67
2023/05/31 01:34:25;;;;;;;7.47;4.67;;;16.10;81.00;;;;;;6302548;28;20453;-66
2023/05/31 01:37:29;;;;;;;5.17;4.67;;;16.00;81.00;;;;;;6302551;28;20457;-66
2023/05/31 01:40:33;;;;;;;4.93;4.43;;;16.00;80.90;;;;;;6302034;28;20936;-66
2023/05/31 01:43:42;;;;;;;6.53;4.80;;;16.00;80.90;;;;;;6302089;28;20468;-66
2023/05/31 01:46:46;;;;;;;8.33;5.73;;;15.90;81.30;;;;;;6302101;28;20473;-66
2023/05/31 01:49:50;;;;;;;6.30;4.60;;;15.80;82.00;;;;;;6301768;28;20566;-66
2023/05/31 01:52:53;;;;;;;7.67;5.43;;;15.80;82.20;;;;;;6301904;28;20560;-66
2023/05/31 01:55:57;;;;;;;5.20;4.47;;;15.70;82.40;;;;;;6301706;28;20489;-66
2023/05/31 01:59:02;;;;;;;11.23;5.00;;;15.70;82.80;;;;;;6301730;28;20526;-66
2023/05/31 02:02:06;;;;;;;6.40;4.80;;;15.70;82.90;;;;;;6301678;28;20559;-66
2023/05/31 02:05:12;;;;;;;9.93;4.70;;;15.70;83.10;;;;;;6301311;28;20552;-66
2023/05/31 02:08:16;;;;;;;7.77;4.70;;;15.60;83.40;;;;;;6301706;28;20461;-66
2023/05/31 02:11:19;;;;;;;4.80;4.40;;;15.60;83.30;;;;;;6301691;28;20473;-66
2023/05/31 02:14:24;;;;;;;6.07;4.53;;;15.50;83.30;;;;;;6300502;28;20500;-66
2023/05/31 02:17:28;;;;;;;5.30;3.97;;;15.50;83.90;;;;;;6301236;28;20552;-66
2023/05/31 02:20:32;;;;;;;7.53;4.37;;;15.40;84.40;;;;;;6301033;28;20480;-65
2023/05/31 02:23:35;;;;;;;11.33;5.17;;;15.40;84.20;;;;;;6300504;28;20898;-65
2023/05/31 02:26:38;;;;;;;6.90;5.07;;;15.40;85.30;;;;;;6301047;28;20465;-65
2023/05/31 02:29:45;;;;;;;5.07;4.23;;;15.30;84.50;;;;;;6301000;28;20484;-65
2023/05/31 02:32:48;;;;;;;4.53;4.03;;;15.30;85.10;;;;;;6300629;28;20623;-65
2023/05/31 02:35:52;;;;;;;5.43;4.10;;;15.30;84.80;;;;;;6300801;28;20550;-65
2023/05/31 02:38:55;;;;;;;4.83;3.90;;;15.30;85.20;;;;;;6300387;28;20469;-65
2023/05/31 02:41:58;;;;;;;5.43;4.30;;;15.20;84.90;;;;;;6300329;28;20471;-65
2023/05/31 02:45:03;;;;;;;4.57;4.10;;;15.20;85.00;;;;;;6300189;28;20769;-65
2023/05/31 02:48:07;;;;;;;4.10;3.70;;;15.20;85.30;;;;;;6301404;28;20475;-66
2023/05/31 02:51:10;;;;;;;6.00;3.80;;;15.20;85.30;;;;;;6300074;28;20552;-66
2023/05/31 02:54:13;;;;;;;5.43;4.53;;;15.20;85.20;;;;;;6306439;28;20484;-66
2023/05/31 02:57:16;;;;;;;4.53;4.10;;;15.10;85.00;;;;;;6311678;28;20546;-66
2023/05/31 03:00:21;;;;;;;4.10;3.70;;;15.10;85.30;;;;;;6300396;28;20469;-66
2023/05/31 03:03:24;;;;;;;5.10;3.73;;;15.10;85.30;;;;;;6300359;28;20771;-66
2023/05/31 03:06:28;;;;;;;4.50;4.10;;;15.10;85.20;;;;;;6300163;28;20473;-66
2023/05/31 03:09:31;;;;;;;3.83;2.80;;;15.10;85.10;;;;;;6300064;28;20548;-66
2023/05/31 03:12:35;;;;;;;5.40;3.23;;;15.10;85.20;;;;;;6299521;28;20477;-66
2023/05/31 03:15:39;;;;;;;4.50;4.10;;;15.10;85.20;;;;;;6299810;28;20475;-66
2023/05/31 03:18:43;;;;;;;9.03;3.83;;;15.00;85.20;;;;;;6299835;28;20472;-66
2023/05/31 03:21:46;;;;;;;5.17;3.73;;;14.90;85.30;;;;;;6299881;28;20502;-66
2023/05/31 03:24:49;;;;;;;4.23;3.63;;;14.90;85.20;;;;;;6299646;28;20635;-67
2023/05/31 03:27:52;;;;;;;4.93;3.70;;;14.90;85.50;;;;;;6299580;28;20552;-66
2023/05/31 03:30:57;;;;;;;8.93;4.07;;;14.90;85.40;;;;;;6299588;28;20767;-66
2023/05/31 03:34:01;;;;;;;5.80;3.73;;;15.00;85.80;;;;;;6299207;28;20477;-66
2023/05/31 03:37:05;;;;;;;3.83;3.53;;;15.00;85.70;;;;;;6299715;28;20476;-66
2023/05/31 03:40:09;;;;;;;5.17;3.80;;;15.10;85.90;;;;;;6299370;28;20481;-66
2023/05/31 03:43:13;;;;;;;4.03;3.67;;;15.00;86.20;;;;;;6299315;28;20449;-66
2023/05/31 03:46:17;;;;;;;4.33;3.73;;;15.10;86.00;;;;;;6299171;28;20803;-66
2023/05/31 03:49:20;;;;;;;4.37;3.97;;;15.20;86.70;;;;;;6299556;28;20804;-66
2023/05/31 03:52:24;;;;;;;4.57;4.13;;;15.30;85.90;;;;;;6298966;28;20936;-66
2023/05/31 03:55:27;;;;;;;6.43;4.73;;;15.40;85.40;;;;;;6299517;28;20441;-66
2023/05/31 03:58:31;;;;;;;6.10;4.07;;;15.50;85.20;;;;;;6299173;28;20460;-66
2023/05/31 04:01:35;;;;;;;4.30;3.83;;;15.60;85.00;;;;;;6299672;28;20465;-66
2023/05/31 04:04:38;;;;;;;6.90;4.70;;;15.70;85.00;;;;;;6299599;28;20471;-66
2023/05/31 04:07:42;;;;;;;5.30;3.87;;;15.80;84.10;;;;;;6299174;28;20461;-66
2023/05/31 04:10:45;;;;;;;7.23;4.07;;;15.90;83.90;;;;;;6298978;28;20618;-66
2023/05/31 04:13:51;;;;;;;8.00;3.90;;;16.00;83.00;;;;;;6298492;28;20467;-66
2023/05/31 04:16:56;;;;;;;4.20;3.90;;;16.10;82.60;;;;;;6298772;28;20480;-66
2023/05/31 04:19:59;;;;;;;6.50;4.13;;;16.30;81.90;;;;;;6299139;28;20957;-66
2023/05/31 04:23:02;;;;;;;7.40;4.67;;;16.50;81.40;;;;;;6299211;28;20542;-65
2023/05/31 04:26:06;;;;;;;6.33;4.20;;;16.60;81.20;;;;;;6298657;28;20807;-65
2023/05/31 04:29:09;;;;;;;4.27;3.50;;;16.70;80.40;;;;;;6298522;28;20908;-65
2023/05/31 04:32:14;;;;;;;8.17;4.00;;;16.80;80.30;;;;;;6298900;28;20457;-65
2023/05/31 04:35:18;;;;;;;4.83;4.03;;;16.90;79.70;;;;;;6299118;28;20478;-66
2023/05/31 04:38:22;;;;;;;4.67;4.13;;;17.00;79.20;;;;;;6298587;28;20945;-66
2023/05/31 04:41:25;;;;;;;4.90;4.40;;;17.00;79.30;;;;;;6298064;28;20805;-66
2023/05/31 04:44:31;;;;;;;9.60;3.97;;;17.20;79.00;;;;;;6298578;28;20461;-66
2023/05/31 04:47:36;;;;;;;10.73;4.63;;;17.20;78.60;;;;;;6302895;28;20480;-66
2023/05/31 04:50:40;;;;;;;6.20;4.30;;;17.30;78.00;;;;;;6303162;28;20987;-66
2023/05/31 04:53:43;;;;;;;4.97;4.47;;;17.30;78.40;;;;;;6302980;28;20472;-66
2023/05/31 04:56:46;;;;;;;7.93;4.80;;;17.30;77.90;;;;;;6302742;28;20473;-63
2023/05/31 04:59:50;;;;;;;7.60;4.47;;;17.30;77.10;;;;;;6294333;28;20468;-63
2023/05/31 05:02:54;;;;;;;4.90;4.27;;;17.40;76.80;;;;;;6302915;28;20974;-63
2023/05/31 05:05:58;;;;;;;5.40;4.17;;;17.40;76.50;;;;;;6303053;28;20469;-63
2023/05/31 05:09:02;;;;;;;6.67;4.60;;;17.40;76.30;;;;;;6302673;28;20552;-63
2023/05/31 05:12:06;;;;;;;7.03;4.57;;;17.30;76.10;;;;;;6302618;28;20552;-63
2023/05/31 05:15:10;;;;;;;5.50;4.03;;;17.30;75.60;;;;;;6302583;28;20949;-64
2023/05/31 05:18:14;;;;;;;6.73;4.07;;;17.40;75.50;;;;;;6302779;28;20590;-63
2023/05/31 05:21:17;;;;;;;4.80;4.00;;;17.40;75.20;;;;;;6302403;28;20544;-64
2023/05/31 05:24:21;;;;;;;4.80;4.17;;;17.40;74.70;;;;;;6304309;28;20457;-63
2023/05/31 05:27:24;;;;;;;5.73;4.40;;;17.40;75.10;;;;;;6303034;28;20476;-63
2023/05/31 05:30:27;;;;;;;9.80;4.60;;;17.50;75.00;;;;;;6302433;28;20487;-63
2023/05/31 05:33:33;;;;;;;5.30;4.80;;;17.60;75.30;;;;;;6302431;28;20491;-63
2023/05/31 05:36:36;;;;;;;6.47;4.50;;;17.60;75.70;;;;;;6301985;28;20643;-63
2023/05/31 05:39:39;;;;;;;7.30;4.90;;;17.80;75.10;;;;;;6301687;28;20230;-63
2023/05/31 05:42:43;;;;;;;10.00;4.90;;;18.00;74.60;;;;;;6301887;28;20479;-63
2023/05/31 05:45:46;;;;;;;9.70;4.40;;;18.10;74.10;;;;;;6301802;28;20476;-63
2023/05/31 05:48:50;;;;;;;7.53;4.93;;;18.20;73.80;;;;;;6301929;28;20233;-63
2023/05/31 05:51:54;;;;;;;7.53;4.70;;;18.30;73.60;;;;;;6301884;28;20226;-63
2023/05/31 05:54:57;;;;;;;4.83;3.93;;;18.50;74.50;;;;;;6301319;28;20227;-63
2023/05/31 05:58:00;;;;;;;6.10;4.70;;;18.60;72.90;;;;;;6301129;28;20227;-63
2023/05/31 06:01:04;;;;;;;6.60;4.33;;;18.80;71.80;;;;;;6301470;28;20554;-64
2023/05/31 06:04:08;;;;;;;10.90;4.93;;;19.00;71.80;;;;;;6296789;28;20355;-63
2023/05/31 06:07:11;;;;;;;5.03;4.53;;;19.20;71.20;;;;;;6298881;28;20219;-63
2023/05/31 06:10:15;;;;;;;7.17;4.87;;;19.70;71.10;;;;;;6301057;28;20260;-63
2023/05/31 06:13:18;;;;;;;7.80;4.80;;;20.30;70.10;;;;;;6298668;28;20206;-63
2023/05/31 06:16:22;;;;;;;8.90;5.30;;;21.30;67.60;;;;;;6300834;28;20203;-63
2023/05/31 06:19:27;;;;;;;7.40;5.33;;;21.90;64.30;;;;;;6300888;28;20301;-64
2023/05/31 06:22:30;;;;;;;9.83;5.27;;;22.10;61.90;;;;;;6299346;28;22503;-62
2023/05/31 06:25:35;;;;;;;8.40;4.93;;;22.30;61.70;;;;;;6298466;28;20230;-62
2023/05/31 06:28:39;;;;;;;5.60;4.97;;;22.90;60.80;;;;;;6298953;28;20230;-62
2023/05/31 06:31:42;;;;;;;7.83;5.00;;;23.30;58.90;;;;;;6298845;28;20244;-63
2023/05/31 06:34:47;;;;;;;8.17;5.20;;;23.40;57.90;;;;;;6297630;28;20242;-63
2023/05/31 06:37:51;;;;;;;8.60;5.30;;;23.30;57.50;;;;;;6299544;28;20222;-63
2023/05/31 06:40:54;;;;;;;8.10;5.70;;;23.10;57.80;;;;;;6299529;28;20280;-63
2023/05/31 06:43:57;;;;;;;8.47;5.33;;;24.00;57.50;;;;;;6300494;28;20224;-62
2023/05/31 06:47:01;;;;;;;7.97;5.03;;;25.10;55.00;;;;;;6300542;28;20218;-63
2023/05/31 06:50:06;;;;;;;7.40;4.83;;;26.10;52.30;;;;;;6300413;28;20226;-64
2023/05/31 06:53:12;;;;;;;10.53;5.60;;;26.60;50.00;;;;;;6300412;28;20672;-67
2023/05/31 06:56:16;;;;;;;7.77;5.03;;;27.30;49.50;;;;;;6300443;28;20234;-67
2023/05/31 06:59:19;;;;;;;8.83;5.27;;;28.20;48.30;;;;;;6299596;28;20321;-68
2023/05/31 07:02:23;;;;;;;6.70;5.50;;;28.90;46.00;;;;;;6299682;28;20222;-67
2023/05/31 07:05:29;;;;;;;8.27;5.20;;;30.00;44.60;;;;;;6294748;28;20234;-67
2023/05/31 07:08:32;;;;;;;7.40;5.00;;;30.70;41.10;;;;;;6298510;28;20697;-67
2023/05/31 07:11:35;;;;;;;5.50;4.97;;;31.10;39.40;;;;;;6298899;28;20230;-66
2023/05/31 07:14:39;;;;;;;7.57;6.13;;;31.40;38.60;;;;;;6299610;28;20237;-66
2023/05/31 07:17:43;;;;;;;6.22;5.57;;;30.80;38.70;;;;;;6299891;28;20699;-66
2023/05/31 07:20:50;;;;;;;5.53;5.00;;;29.70;40.00;;;;;;6300123;28;20234;-65
2023/05/31 07:23:53;;;;;;;10.20;5.70;;;28.70;41.80;;;;;;6300244;28;20678;-66
2023/05/31 07:26:56;;;;;;;7.20;5.50;;;28.20;43.00;;;;;;6298701;28;20221;-65
2023/05/31 07:30:00;;;;;;;6.90;6.20;;;28.20;44.20;;;;;;6299291;28;20313;-65
2023/05/31 07:33:03;;;;;;;5.90;5.33;;;27.90;44.70;;;;;;6296277;28;20222;-64
2023/05/31 07:36:08;;;;;;;8.50;5.70;;;27.50;45.10;;;;;;6298722;28;20679;-64
2023/05/31 07:39:12;;;;;;;6.83;5.90;;;28.00;45.00;;;;;;6298861;28;20245;-63
2023/05/31 07:42:15;;;;;;;6.50;5.97;;;27.90;44.80;;;;;;6299066;28;20695;-63
2023/05/31 07:45:18;;;;;;;8.73;6.07;;;28.40;45.10;;;;;;6299212;28;20232;-63
2023/05/31 07:48:21;;;;;;;7.50;6.80;;;29.70;43.80;;;;;;6298842;28;20284;-63
2023/05/31 07:51:26;;;;;;;6.88;5.93;;;29.80;42.90;;;;;;6298759;28;20650;-65
2023/05/31 07:54:29;;;;;;;7.77;6.07;;;29.30;43.30;;;;;;6299280;28;20230;-64
2023/05/31 07:57:32;;;;;;;7.17;6.43;;;28.50;44.40;;;;;;6298921;28;20260;-63
2023/05/31 08:00:36;;;;;;;6.63;6.13;;;27.70;46.10;;;;;;6299095;28;20229;-65
2023/05/31 08:03:39;;;;;;;7.17;6.50;;;27.30;47.20;;;;;;6299042;28;20221;-64
2023/05/31 08:06:44;;;;;;;7.43;6.53;;;26.50;48.80;;;;;;6299038;28;20309;-63
2023/05/31 08:09:47;;;;;;;7.03;6.33;;;26.10;49.20;;;;;;6301375;28;20230;-64
2023/05/31 08:12:50;;;;;;;10.70;6.37;;;26.10;49.70;;;;;;6302551;28;20241;-64
2023/05/31 08:15:54;;;;;;;8.67;6.63;;;26.10;49.70;;;;;;6298810;28;20227;-64
2023/05/31 08:18:57;;;;;;;6.57;5.83;;;25.70;50.50;;;;;;6298707;28;20336;-64
2023/05/31 08:22:01;;;;;;;6.93;6.23;;;25.60;50.80;;;;;;6302807;28;20226;-63
2023/05/31 08:25:06;;;;;;;7.60;5.87;;;25.50;51.40;;;;;;6303137;28;20230;-64
2023/05/31 08:28:10;;;;;;;6.73;6.10;;;25.40;51.10;;;;;;6303144;28;20229;-63
2023/05/31 08:31:13;;;;;;;6.27;5.70;;;25.60;50.00;;;;;;6303921;28;20316;-64
2023/05/31 08:34:18;;;;;;;6.87;6.17;;;25.50;50.30;;;;;;6304454;28;20234;-63
2023/05/31 08:37:22;;;;;;;7.23;6.53;;;25.50;50.80;;;;;;6303683;28;20203;-68
2023/05/31 08:40:25;;;;;;;10.10;6.43;;;25.80;51.30;;;;;;6308060;28;20237;-68
2023/05/31 08:43:32;;;;;;;6.40;5.63;;;26.00;52.70;;;;;;6306723;28;20282;-68
2023/05/31 08:46:36;;;;;;;7.10;6.40;;;25.60;51.90;;;;;;6307376;28;20222;-69
2023/05/31 08:49:41;;;;;;;7.30;6.50;;;25.40;51.90;;;;;;6311239;28;20234;-69
2023/05/31 08:52:47;;;;;;;7.27;5.10;;;25.30;53.30;;;;;;6309273;28;20226;-68
2023/05/31 08:55:51;;;;;;;8.43;6.30;;;25.30;52.80;;;;;;6306893;28;20558;-67
2023/05/31 08:58:55;;;;;;;7.73;5.90;;;24.90;53.10;;;;;;6312701;28;20659;-69
2023/05/31 09:02:00;;;;;;;7.37;6.60;;;24.80;53.50;;;;;;6298604;28;20313;-68
2023/05/31 09:05:04;;;;;;;7.17;6.47;;;25.00;54.90;;;;;;6307593;28;20233;-68
2023/05/31 09:08:09;;;;;;;6.10;5.50;;;25.40;52.70;;;;;;6304808;28;20308;-63
2023/05/31 09:11:13;;;;;;;6.47;5.90;;;25.70;51.80;;;;;;6304297;28;20720;-67
2023/05/31 09:14:16;;;;;;;6.40;5.80;;;26.10;50.60;;;;;;6303522;28;20238;-66
2023/05/31 09:17:20;;;;;;;8.57;5.87;;;25.90;50.50;;;;;;6302854;28;20235;-67
2023/05/31 09:20:33;;;;;;;7.27;6.13;;;25.90;50.60;;;;;;6302474;28;20230;-67
2023/05/31 09:23:37;;;;;;;6.97;6.27;;;25.70;51.10;;;;;;6300176;28;20229;-64
2023/05/31 09:26:47;;;;;;;8.07;6.67;;;25.80;51.10;;;;;;6301219;28;20241;-66
2023/05/31 09:29:55;;;;;;;6.73;5.90;;;25.80;50.40;;;;;;6301564;28;20667;-65
2023/05/31 09:32:58;;;;;;;7.50;5.83;;;25.80;50.60;;;;;;6299820;28;20238;-66
2023/05/31 09:36:01;;;;;;;9.77;6.83;;;26.10;50.50;;;;;;6301217;28;20271;-65
2023/05/31 09:39:08;;;;;;;7.50;6.07;;;26.60;50.10;;;;;;6300341;28;20287;-66
2023/05/31 09:42:13;;;;;;;7.10;6.40;;;26.80;48.60;;;;;;6301325;28;20286;-65
2023/05/31 09:45:17;;;;;;;6.97;6.33;;;27.00;48.50;;;;;;6300557;28;20269;-64
2023/05/31 09:48:23;;;;;;;6.90;6.20;;;27.20;48.80;;;;;;6301872;28;20249;-67
2023/05/31 09:51:27;;;;;;;7.30;6.60;;;27.50;47.20;;;;;;6300125;28;20287;-65
2023/05/31 09:54:38;;;;;;;6.40;5.80;;;26.90;48.00;;;;;;6299585;28;20363;-66
2023/05/31 09:57:43;;;;;;;7.23;6.50;;;27.00;47.60;;;;;;6300712;28;20313;-68
2023/05/31 10:00:48;;;;;;;9.40;6.27;;;27.40;48.00;;;;;;6300914;28;20303;-67
2023/05/31 10:03:52;;;;;;;9.80;7.23;;;27.50;47.50;;;;;;6301557;28;20568;-71
2023/05/31 10:06:55;;;;;;;6.43;5.83;;;27.50;47.20;;;;;;6301710;28;20236;-67
2023/05/31 10:09:59;;;;;;;8.40;6.40;;;27.70;46.80;;;;;;6301317;28;20234;-65
2023/05/31 10:13:05;;;;;;;9.13;7.40;;;27.90;46.80;;;;;;6301713;28;20226;-65
2023/05/31 10:16:10;;;;;;;6.30;5.70;;;28.20;47.00;;;;;;6301166;28;20226;-65
2023/05/31 10:19:19;;;;;;;7.23;5.97;;;28.30;46.30;;;;;;6297207;28;20241;-66
2023/05/31 10:22:24;;;;;;;6.70;6.10;;;28.40;45.90;;;;;;6298792;28;20191;-66
2023/05/31 10:25:36;;;;;;;7.20;6.03;;;28.30;46.10;;;;;;6300329;28;20213;-66
2023/05/31 10:28:52;;;;;;;8.93;7.23;;;27.90;45.80;;;;;;6300575;28;20226;-68
2023/05/31 10:32:00;;;;;;;7.43;6.73;;;27.40;47.40;;;;;;6300219;28;20673;-68
2023/05/31 10:35:04;;;;;;;8.27;7.20;;;27.00;47.60;;;;;;6300517;28;20712;-68
2023/05/31 10:38:08;;;;;;;8.20;6.30;;;27.00;48.20;;;;;;6299935;28;20225;-68
2023/05/31 10:41:18;;;;;;;6.50;5.90;;;26.90;48.80;;;;;;6299435;28;20317;-68
2023/05/31 10:44:37;;;;;;;7.83;6.07;;;26.80;49.00;;;;;;6300423;28;20226;-66
2023/05/31 10:47:46;;;;;;;9.90;6.67;;;26.70;49.40;;;;;;6300419;28;20226;-67
2023/05/31 10:50:57;;;;;;;8.93;6.30;;;26.40;49.50;;;;;;6299859;28;20595;-66
2023/05/31 10:54:01;;;;;;;7.10;6.50;;;26.10;50.30;;;;;;6300134;28;20226;-67
2023/05/31 10:57:07;;;;;;;7.00;5.90;;;26.10;50.60;;;;;;6299758;28;20222;-66
2023/05/31 11:00:11;;;;;;;9.70;6.37;;;25.90;50.40;;;;;;6300097;28;20222;-68
2023/05/31 11:03:22;;;;;;;6.90;6.33;;;26.10;50.60;;;;;;6299574;28;20249;-67
2023/05/31 11:06:30;;;;;;;6.80;6.20;;;26.30;50.60;;;;;;6297575;28;20232;-67
2023/05/31 11:09:33;;;;;;;7.97;6.53;;;26.50;50.10;;;;;;6299797;28;20400;-68
2023/05/31 11:12:40;;;;;;;7.23;6.33;;;26.80;49.60;;;;;;6299292;28;20720;-65
2023/05/31 11:15:45;;;;;;;7.00;5.67;;;27.20;49.10;;;;;;6299053;28;20225;-65
2023/05/31 11:18:48;;;;;;;7.63;6.83;;;27.40;48.50;;;;;;6300185;28;20229;-65
2023/05/31 11:21:52;;;;;;;6.80;6.10;;;27.70;48.00;;;;;;6295699;28;20246;-64
2023/05/31 11:24:57;;;;;;;10.50;5.80;;;27.90;47.50;;;;;;6299664;28;20230;-67
2023/05/31 11:28:09;;;;;;;6.70;5.97;;;27.80;47.30;;;;;;6299596;28;20229;-67
2023/05/31 11:31:15;;;;;;;6.90;6.20;;;27.90;47.10;;;;;;6299441;28;20222;-66
2023/05/31 11:34:19;;;;;;;6.27;5.73;;;28.00;47.10;;;;;;6299032;28;20242;-67
2023/05/31 11:37:23;;;;;;;10.13;6.90;;;28.20;46.40;;;;;;6298969;28;20275;-65
2023/05/31 11:40:26;;;;;;;7.20;6.50;;;28.30;46.00;;;;;;6297963;28;20606;-67
2023/05/31 11:43:31;;;;;;;7.60;6.20;;;28.30;46.40;;;;;;6298416;28;20236;-67
2023/05/31 11:46:37;;;;;;;8.07;5.83;;;28.30;47.50;;;;;;6299153;28;20236;-77
2023/05/31 11:49:41;;;;;;;6.60;5.90;;;28.10;45.80;;;;;;6298688;28;20389;-65
2023/05/31 11:52:45;;;;;;;6.30;5.70;;;27.80;46.40;;;;;;6298673;28;20260;-64
2023/05/31 11:55:49;;;;;;;6.77;5.93;;;27.80;46.40;;;;;;6295649;28;20237;-64
2023/05/31 11:58:57;;;;;;;6.67;5.87;;;27.90;46.00;;;;;;6297840;28;20214;-65
2023/05/31 12:02:02;;;;;;;6.87;6.20;;;27.60;46.70;;;;;;6299138;28;20226;-64
2023/05/31 12:05:05;;;;;;;7.00;5.93;;;27.30;47.50;;;;;;6297592;28;20335;-63
2023/05/31 12:08:14;;;;;;;6.73;6.13;;;27.50;47.30;;;;;;6297736;28;20542;-64
2023/05/31 12:11:18;;;;;;;6.27;5.67;;;27.70;46.80;;;;;;6297892;28;20256;-65
2023/05/31 12:14:23;;;;;;;7.20;6.10;;;28.00;46.30;;;;;;6299537;28;20236;-64
2023/05/31 12:17:27;;;;;;;6.97;6.37;;;28.10;45.80;;;;;;6295938;28;20236;-65
2023/05/31 12:20:30;;;;;;;7.00;5.80;;;28.20;45.30;;;;;;6299080;28;20234;-65
2023/05/31 12:23:34;;;;;;;9.43;5.83;;;28.10;45.30;;;;;;6298932;28;20232;-64
2023/05/31 12:26:39;;;;;;;8.30;5.30;;;28.20;45.70;;;;;;6298725;28;20682;-66
2023/05/31 12:29:44;;;;;;;7.20;6.50;;;28.30;45.70;;;;;;6298991;28;20230;-66
2023/05/31 12:32:47;;;;;;;6.53;5.87;;;28.40;45.00;;;;;;6298777;28;20233;-66
2023/05/31 12:35:53;;;;;;;9.63;6.37;;;28.50;44.40;;;;;;6299001;28;20241;-65
2023/05/31 12:38:57;;;;;;;7.03;6.43;;;28.50;43.70;;;;;;6299003;28;20407;-65
2023/05/31 12:42:02;;;;;;;7.13;5.90;;;28.10;44.20;;;;;;6273207;28;20231;-66
2023/05/31 12:45:08;;;;;;;7.87;7.10;;;28.10;44.40;;;;;;6288136;28;20230;-65
2023/05/31 12:48:11;;;;;;;7.30;6.40;;;28.00;44.90;;;;;;6298626;28;20257;-66
2023/05/31 12:51:20;;;;;;;7.13;6.53;;;27.80;45.20;;;;;;6298578;28;20233;-67
2023/05/31 12:54:26;;;;;;;7.50;6.73;;;27.90;46.30;;;;;;6298389;28;20230;-64
2023/05/31 12:57:30;;;;;;;7.33;6.73;;;27.90;46.10;;;;;;6298185;28;20230;-67
2023/05/31 13:00:35;;;;;;;7.07;6.00;;;28.10;45.70;;;;;;6298312;28;20230;-65
2023/05/31 13:03:39;;;;;;;7.10;6.50;;;28.00;45.70;;;;;;6298418;28;20313;-65
2023/05/31 13:06:44;;;;;;;7.03;6.43;;;27.90;44.70;;;;;;6297824;28;20215;-65
2023/05/31 13:09:47;;;;;;;9.43;6.87;;;28.00;44.80;;;;;;6299790;28;20253;-66
2023/05/31 13:12:51;;;;;;;8.10;6.43;;;28.20;44.80;;;;;;6302861;28;20230;-67
2023/05/31 13:15:55;;;;;;;6.60;6.10;;;28.10;45.50;;;;;;6302760;28;20222;-66
2023/05/31 13:18:59;;;;;;;7.20;6.60;;;28.30;45.60;;;;;;6302135;28;20226;-65
2023/05/31 13:22:03;;;;;;;9.20;7.00;;;28.30;45.00;;;;;;6302053;28;20653;-65
2023/05/31 13:25:08;;;;;;;7.13;6.43;;;28.40;45.50;;;;;;6302294;28;20230;-65
2023/05/31 13:28:11;;;;;;;6.90;6.30;;;28.50;45.20;;;;;;6301395;28;20218;-66
2023/05/31 13:31:16;;;;;;;7.77;7.00;;;28.50;45.20;;;;;;6292160;28;20238;-65
2023/05/31 13:34:20;;;;;;;8.57;6.43;;;28.40;44.80;;;;;;6302260;28;20230;-65
2023/05/31 13:37:23;;;;;;;7.40;6.70;;;28.20;44.90;;;;;;6301864;28;20634;-65
2023/05/31 13:40:26;;;;;;;7.73;6.93;;;27.90;44.60;;;;;;6301692;28;20363;-65
2023/05/31 13:43:29;;;;;;;8.63;7.17;;;27.70;45.00;;;;;;6301665;28;20692;-69
2023/05/31 13:46:35;;;;;;;8.97;8.07;;;27.20;45.70;;;;;;6301882;28;20221;-67
2023/05/31 13:49:38;;;;;;;6.73;6.20;;;26.90;46.80;;;;;;6302190;28;20241;-67
2023/05/31 13:52:42;;;;;;;9.63;7.27;;;26.70;47.10;;;;;;6301500;28;20222;-65
2023/05/31 13:55:46;;;;;;;9.50;7.50;;;26.10;48.30;;;;;;6301804;28;20222;-65
2023/05/31 13:59:05;;;;;;;7.53;6.87;;;26.10;48.90;;;;;;6300895;28;20235;-64
2023/05/31 14:02:09;;;;;;;11.93;6.73;;;26.10;48.60;;;;;;6301113;28;20607;-64
2023/05/31 14:05:12;;;;;;;10.40;7.00;;;25.90;49.00;;;;;;6302271;28;20275;-64
2023/05/31 14:08:16;;;;;;;7.70;7.00;;;25.80;49.40;;;;;;6302053;28;20614;-64
2023/05/31 14:11:19;;;;;;;7.77;6.97;;;25.80;49.20;;;;;;6300748;28;20602;-64
2023/05/31 14:14:23;;;;;;;10.97;7.10;;;25.80;49.00;;;;;;6301451;28;20522;-65
2023/05/31 14:17:27;;;;;;;8.07;7.30;;;25.90;48.40;;;;;;6300547;28;20308;-64
2023/05/31 14:20:30;;;;;;;9.50;6.83;;;26.00;48.20;;;;;;6300975;28;20238;-67
2023/05/31 14:23:34;;;;;;;7.50;6.80;;;25.80;48.00;;;;;;6299940;28;20222;-65
2023/05/31 14:26:37;;;;;;;9.47;7.10;;;25.60;48.90;;;;;;6299863;28;20218;-66
2023/05/31 14:29:40;;;;;;;7.63;7.03;;;25.80;49.20;;;;;;6300278;28;20226;-67
2023/05/31 14:32:45;;;;;;;8.17;7.33;;;25.90;49.40;;;;;;6295265;28;20582;-64
2023/05/31 14:35:48;;;;;;;6.63;6.00;;;26.10;48.70;;;;;;6299743;28;20246;-65
2023/05/31 14:38:52;;;;;;;7.60;6.80;;;26.10;49.10;;;;;;6299966;28;20232;-63
2023/05/31 14:41:55;;;;;;;8.90;7.20;;;25.90;48.40;;;;;;6299763;28;20669;-63
2023/05/31 14:45:03;;;;;;;10.07;6.47;;;25.50;49.60;;;;;;6299612;28;20247;-64
2023/05/31 14:48:07;;;;;;;7.20;6.40;;;25.40;50.80;;;;;;6300005;28;20215;-65
2023/05/31 14:51:11;;;;;;;7.60;6.90;;;25.30;51.00;;;;;;6299873;28;20554;-65
2023/05/31 14:54:14;;;;;;;8.07;7.27;;;25.20;49.90;;;;;;6297529;28;20230;-66
2023/05/31 14:57:17;;;;;;;7.90;7.00;;;25.30;50.00;;;;;;6299732;28;20241;-66
2023/05/31 15:00:21;;;;;;;9.20;8.40;;;25.20;49.20;;;;;;6299711;28;20653;-66
2023/05/31 15:03:25;;;;;;;7.53;6.77;;;25.30;49.00;;;;;;6299464;28;20270;-66
2023/05/31 15:06:29;;;;;;;8.67;7.43;;;25.40;48.70;;;;;;6299305;28;20234;-66
2023/05/31 15:09:32;;;;;;;8.17;7.37;;;25.50;49.10;;;;;;6296861;28;20234;-64
2023/05/31 15:12:35;;;;;;;7.70;7.10;;;25.60;48.70;;;;;;6298981;28;20222;-64
2023/05/31 15:15:39;;;;;;;10.20;6.70;;;25.50;48.40;;;;;;6298870;28;20241;-64
2023/05/31 15:18:43;;;;;;;8.50;7.10;;;25.60;47.90;;;;;;6299330;28;20229;-64
2023/05/31 15:21:46;;;;;;;9.53;7.17;;;25.50;47.50;;;;;;6298643;28;20236;-64
2023/05/31 15:24:50;;;;;;;11.57;8.03;;;25.70;47.80;;;;;;6299117;28;20221;-65
2023/05/31 15:27:53;;;;;;;7.93;7.23;;;25.90;46.90;;;;;;6298703;28;20214;-65
2023/05/31 15:30:56;;;;;;;8.00;7.20;;;26.10;46.10;;;;;;6298097;28;20678;-64
2023/05/31 15:34:01;;;;;;;7.40;6.70;;;26.10;46.10;;;;;;6298738;28;20693;-65
2023/05/31 15:37:05;;;;;;;7.70;7.00;;;26.20;46.10;;;;;;6294521;28;20632;-63
2023/05/31 15:40:09;;;;;;;8.10;7.30;;;26.10;46.40;;;;;;6298063;28;20580;-64
2023/05/31 15:43:13;;;;;;;7.83;7.03;;;26.40;47.20;;;;;;6298037;28;20304;-65
2023/05/31 15:46:16;;;;;;;8.20;7.23;;;26.60;47.00;;;;;;6299072;28;20305;-66
2023/05/31 15:49:21;;;;;;;8.00;7.30;;;26.60;46.50;;;;;;6299726;28;20343;-65
2023/05/31 15:52:24;;;;;;;8.17;7.47;;;26.60;46.70;;;;;;6298906;28;20293;-63
2023/05/31 15:55:28;;;;;;;13.27;7.30;;;26.50;46.90;;;;;;6298596;28;20562;-65
2023/05/31 15:58:32;;;;;;;7.97;7.17;;;26.60;46.50;;;;;;6298440;28;20535;-65